Fort Stockton, TX (79735)

4:20 PM CDT on July 24, 2016 (GMT -0500)
Fort Stockton RV Park | | Change Station

Elev 2910 ft 30.89 °N, 102.80 °W | Updated 8 seconds ago

Clear
Clear
97.5 °F
Feels Like 98 °F
N
10.6
Wind Variable Wind from East
Gusts 16.1 mph

Today
High -- | Low -- °F
--% Chance of Precip.
Yesterday
High -- | Low -- °F
Precip. -- in
Pressure 29.76 in
Visibility 10.0 miles
Clouds Clear
Heat Index 98 °F
Dew Point 60 °F
Humidity 29%
Rainfall 0.00 in
Snow Depth Not available.
7:04 AM 8:51 PM
Waning Gibbous, 73% visible
METAR KFST 242053Z AUTO 09012G24KT 10SM CLR 38/16 A2994 RMK AO2 SLP077 T03830156 56017 $
Pressure 29.76 in
Visibility 10.0 miles
Clouds Clear
Heat Index 98 °F
Dew Point 60 °F
Humidity 29%
Rainfall 0.00 in
Snow Depth Not available.
7:04 AM 8:51 PM
Waning Gibbous, 73% visible
METAR KFST 242053Z AUTO 09012G24KT 10SM CLR 38/16 A2994 RMK AO2 SLP077 T03830156 56017 $

10-Day Weather Forecast

Almanac

Astronomy

Jul. 24, 2016 Rise Set
Actual Time
Civil Twilight
Nautical Twilight
Astronomical Twilight
Moon
Length of Visible Light
Length of Day
Tomorrow will be .
, % of the Moon is Illuminated

Today's Extremes

State Highs State Lows

Community

WunderPhotos

Upload Photos

1,927,191 photos uploaded!

WunderBlog® & News

Nearby

Air Quality

  Air Quality AQ Index Pollutant
Not available.

Snow Depth

Station Depth Elevation

Earthquake Activity

City Distance Mag. Time & Date
Minimum magnitude displayed is 2.5.

Coastal Water Temperatures

Place Temperature

Stations

Nearby Weather Stations

Station Location Temp. Windchill Dew Point Humidity Wind Precip. Elev Updated Type
                   

Watches & Warnings

There are currently no watches in effect.